Time;durP1;ratioP1;P1;durP2;ratioP2;P2;SDS_P1;SDS_P2;PMS_P1;PMS_P2;Temp;Humidity;BMP_temperature;BMP_pressure;BME280_temperature;BME280_humidity;BME280_pressure;Samples;Min_cycle;Max_cycle;Signal;HPM_P1;HPM_P2
2023/03/30 00:02:29;;;;;;;0.00;0.00;;;12.20;99.90;;;;;;5072206;28;20168;-57
2023/03/30 00:05:01;;;;;;;0.00;0.00;;;12.20;99.90;;;;;;5090075;28;20182;-57
2023/03/30 00:07:30;;;;;;;0.00;0.00;;;12.20;99.90;;;;;;5090338;28;20247;-56
2023/03/30 00:09:57;;;;;;;0.00;0.00;;;12.20;99.90;;;;;;5090145;28;20233;-56
2023/03/30 00:12:23;;;;;;;0.03;0.03;;;12.10;99.90;;;;;;5090263;28;20222;-57
2023/03/30 00:14:49;;;;;;;0.00;0.00;;;12.10;99.90;;;;;;5089874;28;20176;-57
2023/03/30 00:17:14;;;;;;;0.00;0.00;;;12.10;99.90;;;;;;5090108;28;20200;-56
2023/03/30 00:19:40;;;;;;;0.00;0.00;;;12.10;99.90;;;;;;5090292;28;20180;-56
2023/03/30 00:22:07;;;;;;;0.15;0.15;;;12.10;99.90;;;;;;5090108;28;20259;-56
2023/03/30 00:24:36;;;;;;;0.00;0.00;;;12.10;99.90;;;;;;5089947;28;20884;-56
2023/03/30 00:27:02;;;;;;;0.00;0.00;;;12.10;99.90;;;;;;5089727;28;20250;-56
2023/03/30 00:29:28;;;;;;;0.00;0.00;;;12.10;99.90;;;;;;5089941;28;20184;-57
2023/03/30 00:31:54;;;;;;;0.00;0.00;;;12.10;99.90;;;;;;5089816;28;20238;-57
2023/03/30 00:34:20;;;;;;;0.00;0.00;;;12.20;99.90;;;;;;5089902;28;20223;-56
2023/03/30 00:36:47;;;;;;;0.00;0.00;;;12.20;99.90;;;;;;5092368;28;20184;-57
2023/03/30 00:39:17;;;;;;;0.00;0.00;;;12.20;99.90;;;;;;5093278;28;20168;-56
2023/03/30 00:41:43;;;;;;;0.00;0.00;;;12.20;99.90;;;;;;5093526;28;20237;-56
2023/03/30 00:44:48;;;;;;;0.00;0.00;;;12.20;99.90;;;;;;5093299;28;20183;-56
2023/03/30 00:47:15;;;;;;;0.00;0.00;;;12.20;99.90;;;;;;5093237;28;20176;-56
2023/03/30 00:49:40;;;;;;;0.00;0.00;;;12.20;99.90;;;;;;5087528;28;20185;-57
2023/03/30 00:52:08;;;;;;;0.00;0.00;;;12.20;99.90;;;;;;5089993;28;20216;-57
2023/03/30 00:54:33;;;;;;;0.00;0.00;;;12.20;99.90;;;;;;5092532;28;20638;-57
2023/03/30 00:56:59;;;;;;;0.00;0.00;;;12.10;99.90;;;;;;5092374;28;20317;-56
2023/03/30 00:59:25;;;;;;;0.00;0.00;;;12.10;99.90;;;;;;5092916;28;20187;-56
2023/03/30 01:01:50;;;;;;;0.00;0.00;;;12.10;99.90;;;;;;5092799;28;20195;-56
2023/03/30 01:04:16;;;;;;;0.00;0.00;;;12.00;99.90;;;;;;5093178;28;20594;-57
2023/03/30 01:06:45;;;;;;;0.00;0.00;;;12.00;99.90;;;;;;5093105;28;20179;-56
2023/03/30 01:09:14;;;;;;;0.22;0.22;;;11.90;99.90;;;;;;5092844;28;20254;-57
2023/03/30 01:11:41;;;;;;;0.00;0.00;;;11.90;99.90;;;;;;5092919;28;20176;-57
2023/03/30 01:14:10;;;;;;;0.05;0.05;;;11.90;99.90;;;;;;5092756;28;20191;-57
2023/03/30 01:17:00;;;;;;;0.10;0.10;;;11.80;99.90;;;;;;5092867;28;20275;-57
2023/03/30 01:19:44;;;;;;;0.00;0.00;;;11.80;99.90;;;;;;5092639;28;20172;-57
2023/03/30 01:22:49;;;;;;;0.00;0.00;;;11.80;99.90;;;;;;5092328;28;20222;-57
2023/03/30 01:25:32;;;;;;;0.28;0.28;;;11.80;99.90;;;;;;5082213;28;20184;-57
2023/03/30 01:28:07;;;;;;;0.00;0.00;;;11.70;99.90;;;;;;5091187;28;20230;-57
2023/03/30 01:30:57;;;;;;;0.00;0.00;;;11.70;99.90;;;;;;5092110;28;20580;-57
2023/03/30 01:33:47;;;;;;;0.00;0.00;;;11.70;99.90;;;;;;5092143;28;20216;-57
2023/03/30 01:36:16;;;;;;;0.00;0.00;;;11.70;99.90;;;;;;5072068;28;20209;-57
2023/03/30 01:38:57;;;;;;;0.00;0.00;;;11.70;99.90;;;;;;5074670;28;20173;-57
2023/03/30 01:41:39;;;;;;;0.08;0.08;;;11.70;99.90;;;;;;5092236;28;20180;-57
2023/03/30 01:44:12;;;;;;;0.00;0.00;;;11.70;99.90;;;;;;5092275;28;20192;-57
2023/03/30 01:46:46;;;;;;;0.00;0.00;;;11.70;99.90;;;;;;5092025;28;20172;-57
2023/03/30 01:49:21;;;;;;;0.00;0.00;;;11.70;99.90;;;;;;5092140;28;20526;-56
2023/03/30 01:52:14;;;;;;;0.00;0.00;;;11.70;99.90;;;;;;5091837;28;20270;-56
2023/03/30 01:55:22;;;;;;;0.00;0.00;;;11.70;99.90;;;;;;5078320;28;20191;-57
2023/03/30 01:58:21;;;;;;;0.00;0.00;;;11.70;99.90;;;;;;4989998;28;20210;-57
2023/03/30 02:00:49;;;;;;;0.00;0.00;;;11.80;99.90;;;;;;5091780;28;20202;-56
2023/03/30 02:03:18;;;;;;;0.00;0.00;;;11.80;99.90;;;;;;5091111;28;20531;-57
2023/03/30 02:05:47;;;;;;;0.00;0.00;;;11.90;99.90;;;;;;5091086;28;20175;-56
2023/03/30 02:08:19;;;;;;;0.10;0.10;;;11.90;99.90;;;;;;5090163;28;20635;-57
2023/03/30 02:10:46;;;;;;;0.35;0.35;;;11.90;99.90;;;;;;5091828;28;20184;-57
2023/03/30 02:13:14;;;;;;;0.00;0.00;;;12.00;99.90;;;;;;5091221;28;20620;-57
2023/03/30 02:15:47;;;;;;;0.00;0.00;;;12.00;99.90;;;;;;5091790;28;20222;-57
2023/03/30 02:18:13;;;;;;;0.00;0.00;;;12.10;99.90;;;;;;5091437;28;20176;-57
2023/03/30 02:20:38;;;;;;;0.00;0.00;;;12.10;99.90;;;;;;5091233;28;20541;-57
2023/03/30 02:23:05;;;;;;;0.00;0.00;;;12.10;99.90;;;;;;5087598;28;20667;-57
2023/03/30 02:25:32;;;;;;;0.00;0.00;;;12.20;99.90;;;;;;5082451;28;20175;-56
2023/03/30 02:27:58;;;;;;;0.00;0.00;;;12.20;99.90;;;;;;5082790;28;20220;-57
2023/03/30 02:30:23;;;;;;;0.00;0.00;;;12.30;99.90;;;;;;5077500;28;20164;-57
2023/03/30 02:32:55;;;;;;;0.55;0.55;;;12.40;99.90;;;;;;5090807;28;20219;-56
2023/03/30 02:35:32;;;;;;;0.00;0.00;;;12.50;99.90;;;;;;5091566;28;20195;-56
2023/03/30 02:38:13;;;;;;;0.00;0.00;;;12.60;99.90;;;;;;5091271;28;20184;-57
2023/03/30 02:41:02;;;;;;;0.00;0.00;;;12.70;99.90;;;;;;5091546;28;20183;-57
2023/03/30 02:43:44;;;;;;;0.00;0.00;;;12.80;99.90;;;;;;5091255;28;20229;-57
2023/03/30 02:46:25;;;;;;;0.08;0.08;;;12.80;99.90;;;;;;5091051;28;20626;-57
2023/03/30 02:49:22;;;;;;;0.00;0.00;;;13.00;99.90;;;;;;5091302;28;20255;-57
2023/03/30 02:51:50;;;;;;;0.32;0.32;;;13.00;99.90;;;;;;5090904;28;20721;-56
2023/03/30 02:54:45;;;;;;;0.00;0.00;;;13.10;99.90;;;;;;5082462;28;20267;-57
2023/03/30 02:57:33;;;;;;;0.00;0.00;;;13.30;99.90;;;;;;5082232;28;20172;-57
2023/03/30 03:00:14;;;;;;;0.00;0.00;;;13.30;99.90;;;;;;5089957;28;20191;-57
2023/03/30 03:02:43;;;;;;;0.00;0.00;;;13.30;99.90;;;;;;5090454;28;20664;-57
2023/03/30 03:05:11;;;;;;;0.00;0.00;;;13.40;99.90;;;;;;5091028;28;20305;-56
2023/03/30 03:07:37;;;;;;;0.00;0.00;;;13.40;99.90;;;;;;5090565;28;20199;-57
2023/03/30 03:10:05;;;;;;;0.00;0.00;;;13.40;99.90;;;;;;5091120;28;20172;-57
2023/03/30 03:12:31;;;;;;;0.00;0.00;;;13.30;99.90;;;;;;5090538;28;20204;-57
2023/03/30 03:14:57;;;;;;;0.00;0.00;;;13.30;99.90;;;;;;5090635;28;20254;-57
2023/03/30 03:17:22;;;;;;;0.00;0.00;;;13.30;99.90;;;;;;5090691;28;20626;-57
2023/03/30 03:19:48;;;;;;;0.00;0.00;;;13.30;99.90;;;;;;5090676;28;20563;-57
2023/03/30 03:22:14;;;;;;;0.00;0.00;;;13.30;99.90;;;;;;5090380;28;20234;-57
2023/03/30 03:24:40;;;;;;;0.10;0.10;;;13.30;99.90;;;;;;5090852;28;20176;-57
2023/03/30 03:27:06;;;;;;;0.00;0.00;;;13.30;99.90;;;;;;5089137;28;20743;-57
2023/03/30 03:29:31;;;;;;;0.00;0.00;;;13.30;99.90;;;;;;5076620;28;20184;-57
2023/03/30 03:31:57;;;;;;;0.00;0.00;;;13.30;99.90;;;;;;5089611;28;20228;-57
2023/03/30 03:34:25;;;;;;;0.00;0.00;;;13.30;99.90;;;;;;5070503;28;20263;-57
2023/03/30 03:36:53;;;;;;;0.00;0.00;;;13.30;99.90;;;;;;5081518;28;20194;-57
2023/03/30 03:39:19;;;;;;;0.15;0.15;;;13.30;99.90;;;;;;5089999;28;20548;-56
2023/03/30 03:41:45;;;;;;;0.00;0.00;;;13.30;99.90;;;;;;5089685;28;20184;-56
2023/03/30 03:44:10;;;;;;;0.00;0.00;;;13.30;99.90;;;;;;5089987;28;20171;-56
2023/03/30 03:46:36;;;;;;;0.00;0.00;;;13.30;99.90;;;;;;5090105;28;20213;-56
2023/03/30 03:49:01;;;;;;;0.00;0.00;;;13.30;99.90;;;;;;5089556;28;20187;-57
2023/03/30 03:51:28;;;;;;;0.08;0.08;;;13.30;99.90;;;;;;5090097;28;20180;-55
2023/03/30 03:53:53;;;;;;;0.32;0.22;;;13.30;99.90;;;;;;5089382;28;20559;-56
2023/03/30 03:56:19;;;;;;;0.00;0.00;;;13.30;99.90;;;;;;5089218;28;20184;-55
2023/03/30 03:58:44;;;;;;;0.00;0.00;;;13.30;99.90;;;;;;5090249;28;20291;-56
2023/03/30 04:01:13;;;;;;;0.00;0.00;;;13.30;99.90;;;;;;5088955;28;20632;-56
2023/03/30 04:03:39;;;;;;;0.00;0.00;;;13.30;99.90;;;;;;5089769;28;20642;-56
2023/03/30 04:06:05;;;;;;;0.00;0.00;;;13.30;99.90;;;;;;5089835;28;20196;-57
2023/03/30 04:08:30;;;;;;;0.00;0.00;;;13.30;99.90;;;;;;5089347;28;20207;-57
2023/03/30 04:11:10;;;;;;;0.05;0.05;;;13.30;99.90;;;;;;5090284;28;20180;-56
2023/03/30 04:13:37;;;;;;;0.00;0.00;;;13.30;99.90;;;;;;5092449;28;20618;-57
2023/03/30 04:16:03;;;;;;;0.00;0.00;;;13.20;99.90;;;;;;5093545;28;20523;-57
2023/03/30 04:18:32;;;;;;;0.00;0.00;;;13.20;99.90;;;;;;5094033;28;20228;-57
2023/03/30 04:21:06;;;;;;;0.45;0.45;;;13.10;99.90;;;;;;5093916;28;20176;-57
2023/03/30 04:23:33;;;;;;;0.00;0.00;;;13.10;99.90;;;;;;5093347;28;20186;-57
2023/03/30 04:26:00;;;;;;;0.00;0.00;;;13.00;99.90;;;;;;5093579;28;20181;-57
2023/03/30 04:28:28;;;;;;;0.00;0.00;;;12.90;99.90;;;;;;5093768;28;20646;-57
2023/03/30 04:30:57;;;;;;;0.00;0.00;;;13.00;99.90;;;;;;5093433;28;20183;-57
2023/03/30 04:33:23;;;;;;;0.00;0.00;;;13.00;99.90;;;;;;5081157;28;20606;-57
2023/03/30 04:35:49;;;;;;;0.10;0.10;;;13.00;99.90;;;;;;5073499;28;20172;-57
2023/03/30 04:38:20;;;;;;;0.00;0.00;;;13.00;99.90;;;;;;5073558;28;20190;-57
2023/03/30 04:40:47;;;;;;;0.00;0.00;;;12.90;99.90;;;;;;5073327;28;20579;-57
2023/03/30 04:43:13;;;;;;;0.00;0.00;;;12.90;99.90;;;;;;5073232;28;20259;-57
2023/03/30 04:45:38;;;;;;;0.00;0.00;;;12.90;99.90;;;;;;5055444;28;20204;-57
2023/03/30 04:48:04;;;;;;;0.00;0.00;;;12.90;99.90;;;;;;5073289;28;20558;-57
2023/03/30 04:50:30;;;;;;;0.00;0.00;;;12.90;99.90;;;;;;5073049;28;20180;-57
2023/03/30 04:52:55;;;;;;;0.20;0.20;;;12.90;99.90;;;;;;5072877;28;20224;-57
2023/03/30 04:55:21;;;;;;;0.00;0.00;;;12.90;99.90;;;;;;5073142;28;20176;-57
2023/03/30 04:57:46;;;;;;;0.30;0.30;;;12.90;99.90;;;;;;5073025;28;20191;-57
2023/03/30 05:00:12;;;;;;;0.10;0.10;;;12.80;99.90;;;;;;5073003;28;20198;-57
2023/03/30 05:02:38;;;;;;;0.00;0.00;;;12.80;99.90;;;;;;5073004;28;20189;-57
2023/03/30 05:05:04;;;;;;;0.20;0.20;;;12.80;99.90;;;;;;5073048;28;20173;-57
2023/03/30 05:07:29;;;;;;;0.73;0.43;;;12.80;99.90;;;;;;5072820;28;20185;-57
2023/03/30 05:09:55;;;;;;;0.00;0.00;;;12.80;99.90;;;;;;5072528;28;20180;-57
2023/03/30 05:12:20;;;;;;;1.08;0.77;;;12.80;99.90;;;;;;5072769;28;20209;-57
2023/03/30 05:14:46;;;;;;;1.00;0.85;;;12.80;99.90;;;;;;5072562;28;20643;-57
2023/03/30 05:17:11;;;;;;;0.00;0.00;;;12.80;99.90;;;;;;5072745;28;20160;-57
2023/03/30 05:19:37;;;;;;;0.00;0.00;;;12.80;99.90;;;;;;5072516;28;20191;-57
2023/03/30 05:22:02;;;;;;;0.05;0.05;;;12.80;99.90;;;;;;5072317;28;20173;-57
2023/03/30 05:24:28;;;;;;;0.47;0.35;;;12.80;99.90;;;;;;5072440;28;20181;-57
2023/03/30 05:26:53;;;;;;;1.95;0.25;;;12.70;99.90;;;;;;5072057;28;20235;-57
2023/03/30 05:29:19;;;;;;;0.00;0.00;;;12.80;99.90;;;;;;5072404;28;20250;-57
2023/03/30 05:31:44;;;;;;;0.60;0.60;;;12.80;99.90;;;;;;5072935;28;20179;-57
2023/03/30 05:34:10;;;;;;;0.00;0.00;;;12.80;99.90;;;;;;5088099;28;20204;-57
2023/03/30 05:36:36;;;;;;;0.00;0.00;;;12.80;99.90;;;;;;5092454;28;20172;-57
2023/03/30 05:39:03;;;;;;;0.00;0.00;;;12.80;99.90;;;;;;5092830;28;20186;-57
2023/03/30 05:41:30;;;;;;;0.00;0.00;;;12.90;99.90;;;;;;5092630;28;20180;-57
2023/03/30 05:43:56;;;;;;;0.00;0.00;;;12.90;99.90;;;;;;5092244;28;20178;-57
2023/03/30 05:46:22;;;;;;;0.00;0.00;;;12.90;99.90;;;;;;5092523;28;20529;-57
2023/03/30 05:48:47;;;;;;;0.00;0.00;;;12.90;99.90;;;;;;5092249;28;20164;-57
2023/03/30 05:51:13;;;;;;;0.00;0.00;;;12.90;99.90;;;;;;5092378;28;20620;-57
2023/03/30 05:53:38;;;;;;;0.38;0.38;;;12.80;99.90;;;;;;5091987;28;20254;-57
2023/03/30 05:56:06;;;;;;;0.00;0.00;;;12.80;99.90;;;;;;5092384;28;20225;-57
2023/03/30 05:58:31;;;;;;;0.32;0.32;;;12.80;99.90;;;;;;5092134;28;20282;-57
2023/03/30 06:00:57;;;;;;;0.13;0.13;;;12.70;99.90;;;;;;5092175;28;20179;-57
2023/03/30 06:03:23;;;;;;;0.00;0.00;;;12.80;99.90;;;;;;5092218;28;20172;-57
2023/03/30 06:05:51;;;;;;;0.00;0.00;;;12.80;99.90;;;;;;5091887;28;20665;-57
2023/03/30 06:08:17;;;;;;;0.43;0.43;;;12.80;99.90;;;;;;5091632;28;20180;-57
2023/03/30 06:10:51;;;;;;;0.00;0.00;;;12.80;99.90;;;;;;5091672;28;20182;-57
2023/03/30 06:13:17;;;;;;;0.00;0.00;;;12.80;99.90;;;;;;5091227;28;20613;-56
2023/03/30 06:15:44;;;;;;;0.00;0.00;;;12.70;99.90;;;;;;5091784;28;20174;-57
2023/03/30 06:18:10;;;;;;;0.00;0.00;;;12.60;99.90;;;;;;5091953;28;20207;-57
2023/03/30 06:20:35;;;;;;;0.00;0.00;;;12.50;99.90;;;;;;5091750;28;20245;-57
2023/03/30 06:23:01;;;;;;;0.40;0.40;;;12.50;99.90;;;;;;5091657;28;20528;-57
2023/03/30 06:25:28;;;;;;;0.00;0.00;;;12.50;99.90;;;;;;5091680;28;20218;-57
2023/03/30 06:27:54;;;;;;;0.08;0.08;;;12.50;99.90;;;;;;5091395;28;20239;-57
2023/03/30 06:30:20;;;;;;;0.03;0.03;;;12.50;99.90;;;;;;5091830;28;20246;-57
2023/03/30 06:32:45;;;;;;;0.00;0.00;;;12.50;99.90;;;;;;5090827;28;20638;-57
2023/03/30 06:35:12;;;;;;;0.00;0.00;;;12.50;99.90;;;;;;5091146;28;20175;-57
2023/03/30 06:37:38;;;;;;;0.00;0.00;;;12.50;99.90;;;;;;5091202;28;20172;-57
2023/03/30 06:40:07;;;;;;;0.00;0.00;;;12.50;99.90;;;;;;5091422;28;20237;-57
2023/03/30 06:42:33;;;;;;;0.00;0.00;;;12.60;99.90;;;;;;5091483;28;20184;-57
2023/03/30 06:44:58;;;;;;;0.00;0.00;;;12.60;99.90;;;;;;5091323;28;20530;-57
2023/03/30 06:47:24;;;;;;;0.13;0.13;;;12.50;99.90;;;;;;5091402;28;20646;-57
2023/03/30 06:49:49;;;;;;;0.10;0.10;;;12.50;99.90;;;;;;5091110;28;20255;-57
2023/03/30 06:52:15;;;;;;;0.00;0.00;;;12.50;99.90;;;;;;5090983;28;20243;-57
2023/03/30 06:54:41;;;;;;;0.00;0.00;;;12.50;99.90;;;;;;5090881;28;20255;-57
2023/03/30 06:57:06;;;;;;;0.00;0.00;;;12.50;99.90;;;;;;5091175;28;20258;-57
2023/03/30 06:59:32;;;;;;;0.35;0.35;;;12.40;99.90;;;;;;5091206;28;20634;-57
2023/03/30 07:01:58;;;;;;;0.00;0.00;;;12.40;99.90;;;;;;5090814;28;20172;-57
2023/03/30 07:04:24;;;;;;;0.03;0.03;;;12.40;99.90;;;;;;5091128;28;20168;-57
2023/03/30 07:06:50;;;;;;;0.00;0.00;;;12.40;99.90;;;;;;5090883;28;20180;-57
2023/03/30 07:09:16;;;;;;;0.10;0.10;;;12.40;99.90;;;;;;5090900;28;20180;-57
2023/03/30 07:11:42;;;;;;;0.20;0.20;;;12.40;99.90;;;;;;5091078;28;20172;-57
2023/03/30 07:14:08;;;;;;;0.00;0.00;;;12.40;99.90;;;;;;5090802;28;20212;-57
2023/03/30 07:16:34;;;;;;;0.00;0.00;;;12.40;99.90;;;;;;5090777;28;20184;-57
2023/03/30 07:19:00;;;;;;;0.15;0.15;;;12.40;99.90;;;;;;5090879;28;20183;-57
2023/03/30 07:21:25;;;;;;;0.00;0.00;;;12.30;99.90;;;;;;5090929;28;20179;-57
2023/03/30 07:23:51;;;;;;;0.03;0.03;;;12.30;99.90;;;;;;5090617;28;20172;-57
2023/03/30 07:26:16;;;;;;;0.10;0.05;;;12.30;99.90;;;;;;5090649;28;20208;-57
2023/03/30 07:28:44;;;;;;;0.00;0.00;;;12.30;99.90;;;;;;5090877;28;20263;-57
2023/03/30 07:31:13;;;;;;;0.00;0.00;;;12.30;99.90;;;;;;5090888;28;20192;-57
2023/03/30 07:33:39;;;;;;;0.00;0.00;;;12.20;99.90;;;;;;5082100;28;20645;-56
2023/03/30 07:36:05;;;;;;;0.00;0.00;;;12.30;99.90;;;;;;5089607;28;20180;-57
2023/03/30 07:38:32;;;;;;;0.00;0.00;;;12.20;99.90;;;;;;5088835;28;20192;-57
2023/03/30 07:40:58;;;;;;;0.00;0.00;;;12.20;99.90;;;;;;5084234;28;20173;-57
2023/03/30 07:43:23;;;;;;;0.95;0.80;;;12.20;99.90;;;;;;5070613;28;20664;-57
2023/03/30 07:45:49;;;;;;;0.25;0.25;;;12.30;99.90;;;;;;5073082;28;20247;-57
2023/03/30 07:48:14;;;;;;;0.00;0.00;;;12.30;99.90;;;;;;5074636;28;20177;-57
2023/03/30 07:50:40;;;;;;;0.00;0.00;;;12.30;99.90;;;;;;5074387;28;20262;-57
2023/03/30 07:53:05;;;;;;;0.00;0.00;;;12.30;99.90;;;;;;5074377;28;20209;-56
2023/03/30 07:55:31;;;;;;;0.00;0.00;;;12.30;99.90;;;;;;5074507;28;20168;-57
2023/03/30 07:57:57;;;;;;;0.00;0.00;;;12.30;99.90;;;;;;5074197;28;20165;-56
2023/03/30 08:00:23;;;;;;;0.28;0.28;;;12.30;99.90;;;;;;5074433;28;20640;-57
2023/03/30 08:02:49;;;;;;;0.00;0.00;;;12.30;99.90;;;;;;5074137;28;20281;-57
2023/03/30 08:05:16;;;;;;;0.00;0.00;;;12.20;99.90;;;;;;5074159;28;20177;-57
2023/03/30 08:07:43;;;;;;;0.00;0.00;;;12.30;99.90;;;;;;5074032;28;20218;-57
2023/03/30 08:10:09;;;;;;;0.00;0.00;;;12.30;99.90;;;;;;5074279;28;20233;-57
2023/03/30 08:12:35;;;;;;;0.00;0.00;;;12.30;99.90;;;;;;5073981;28;20212;-57
2023/03/30 08:15:01;;;;;;;0.08;0.08;;;12.30;99.90;;;;;;5074116;28;20670;-57
2023/03/30 08:17:26;;;;;;;0.15;0.15;;;12.30;99.90;;;;;;5074110;28;20188;-56
2023/03/30 08:19:52;;;;;;;0.00;0.00;;;12.20;99.90;;;;;;5073951;28;20183;-57
2023/03/30 08:22:17;;;;;;;0.17;0.17;;;12.20;99.90;;;;;;5073848;28;20180;-57
2023/03/30 08:24:43;;;;;;;0.00;0.00;;;12.20;99.90;;;;;;5073858;28;20215;-57
2023/03/30 08:27:08;;;;;;;0.00;0.00;;;12.20;99.90;;;;;;5073729;28;20308;-57
2023/03/30 08:29:34;;;;;;;0.05;0.05;;;12.10;99.90;;;;;;5073708;28;20184;-56
2023/03/30 08:32:00;;;;;;;0.00;0.00;;;12.20;99.90;;;;;;5055734;28;20173;-57
2023/03/30 08:34:26;;;;;;;0.00;0.00;;;12.20;99.90;;;;;;5073676;28;20639;-57
2023/03/30 08:36:51;;;;;;;0.43;0.43;;;12.30;99.90;;;;;;5077952;28;20224;-56
2023/03/30 08:39:17;;;;;;;0.00;0.00;;;12.30;99.90;;;;;;5093886;28;20263;-57
2023/03/30 08:41:48;;;;;;;0.00;0.00;;;12.40;99.90;;;;;;5093726;28;20172;-57
2023/03/30 08:44:34;;;;;;;0.00;0.00;;;12.50;99.90;;;;;;5094018;28;20205;-56
2023/03/30 08:47:03;;;;;;;0.03;0.03;;;12.60;99.90;;;;;;5093764;28;20172;-56
2023/03/30 08:49:34;;;;;;;0.10;0.10;;;12.70;99.90;;;;;;5075371;28;20172;-56
2023/03/30 08:52:03;;;;;;;0.00;0.00;;;12.70;99.90;;;;;;5093666;28;20193;-56
2023/03/30 08:54:31;;;;;;;0.05;0.05;;;12.90;99.90;;;;;;5093684;28;20226;-56
2023/03/30 08:57:12;;;;;;;0.00;0.00;;;13.10;99.90;;;;;;5092499;28;20173;-56
2023/03/30 08:59:49;;;;;;;0.00;0.00;;;13.20;99.90;;;;;;5093241;28;20549;-57
2023/03/30 09:02:28;;;;;;;0.00;0.00;;;13.40;99.90;;;;;;5093467;28;20175;-57
2023/03/30 09:05:12;;;;;;;0.00;0.00;;;13.50;99.90;;;;;;5093222;28;20179;-57
2023/03/30 09:08:05;;;;;;;0.00;0.00;;;13.90;99.90;;;;;;5093207;28;20176;-57
2023/03/30 09:10:36;;;;;;;0.00;0.00;;;14.40;99.90;;;;;;5093152;28;20172;-57
2023/03/30 09:13:03;;;;;;;0.00;0.00;;;14.40;99.90;;;;;;5093076;28;20211;-57
2023/03/30 09:15:42;;;;;;;0.00;0.00;;;14.30;99.90;;;;;;5093094;28;20175;-57
2023/03/30 09:18:31;;;;;;;0.00;0.00;;;14.20;99.90;;;;;;5093054;28;20171;-57
2023/03/30 09:20:58;;;;;;;0.00;0.00;;;14.10;99.90;;;;;;5092884;28;20191;-58
2023/03/30 09:23:28;;;;;;;0.00;0.00;;;14.00;99.90;;;;;;5093068;28;20174;-57
2023/03/30 09:26:22;;;;;;;0.00;0.00;;;13.90;99.90;;;;;;5092671;28;20183;-57
2023/03/30 09:29:12;;;;;;;0.00;0.00;;;13.80;99.90;;;;;;5092702;28;20191;-57
2023/03/30 09:31:40;;;;;;;0.00;0.00;;;13.80;99.90;;;;;;5092718;28;20168;-57
2023/03/30 09:34:10;;;;;;;0.00;0.00;;;13.80;99.90;;;;;;5092835;28;20215;-57
2023/03/30 09:36:38;;;;;;;0.00;0.00;;;13.80;99.90;;;;;;5092489;28;20172;-57
2023/03/30 09:39:22;;;;;;;0.00;0.00;;;13.70;99.90;;;;;;5092227;28;20188;-57
2023/03/30 09:42:07;;;;;;;0.00;0.00;;;13.80;99.90;;;;;;5090723;28;20191;-57
2023/03/30 09:44:43;;;;;;;0.00;0.00;;;13.90;99.90;;;;;;5090296;28;20184;-58
2023/03/30 09:47:21;;;;;;;0.00;0.00;;;13.90;99.90;;;;;;5072389;28;20252;-57
2023/03/30 09:49:47;;;;;;;0.00;0.00;;;14.00;99.90;;;;;;5072272;28;20177;-57
2023/03/30 09:52:21;;;;;;;0.00;0.00;;;14.00;99.90;;;;;;5072104;28;20173;-57
2023/03/30 09:54:46;;;;;;;0.00;0.00;;;14.10;99.90;;;;;;5072279;28;20176;-58
2023/03/30 09:57:30;;;;;;;0.00;0.00;;;14.30;99.90;;;;;;5072228;28;20189;-57
2023/03/30 09:59:59;;;;;;;0.00;0.00;;;14.50;99.90;;;;;;5071945;28;20276;-57
2023/03/30 10:02:27;;;;;;;0.00;0.00;;;14.60;99.90;;;;;;5071922;28;20176;-57
2023/03/30 10:04:59;;;;;;;0.00;0.00;;;14.60;99.90;;;;;;5071885;28;20696;-57
2023/03/30 10:07:38;;;;;;;0.00;0.00;;;14.50;99.90;;;;;;5071812;28;20177;-57
2023/03/30 10:10:30;;;;;;;0.00;0.00;;;14.40;99.90;;;;;;5071935;28;20263;-57
2023/03/30 10:13:10;;;;;;;0.00;0.00;;;14.30;99.90;;;;;;5071578;28;20216;-57
2023/03/30 10:15:39;;;;;;;0.00;0.00;;;14.20;99.90;;;;;;5071549;28;20191;-57
2023/03/30 10:18:35;;;;;;;0.00;0.00;;;14.30;99.90;;;;;;5071783;28;20570;-57
2023/03/30 10:21:18;;;;;;;0.00;0.00;;;14.20;99.90;;;;;;5071628;28;20727;-57
2023/03/30 10:23:46;;;;;;;0.00;0.00;;;14.40;99.90;;;;;;5071534;28;20219;-57
2023/03/30 10:26:16;;;;;;;0.00;0.00;;;14.60;99.90;;;;;;5071410;28;20220;-57
2023/03/30 10:28:56;;;;;;;0.20;0.20;;;14.70;99.90;;;;;;5071377;28;20183;-57
2023/03/30 10:31:23;;;;;;;0.00;0.00;;;14.80;99.90;;;;;;5071458;28;20168;-57
2023/03/30 10:33:53;;;;;;;0.00;0.00;;;15.00;99.90;;;;;;5071268;28;20683;-57
2023/03/30 10:36:28;;;;;;;0.00;0.00;;;15.00;99.90;;;;;;5053421;28;20172;-57
2023/03/30 10:38:54;;;;;;;0.00;0.00;;;15.00;99.90;;;;;;5070982;28;20302;-56
2023/03/30 10:41:22;;;;;;;0.03;0.03;;;15.10;99.90;;;;;;5073522;28;20268;-57
2023/03/30 10:43:49;;;;;;;0.00;0.00;;;15.10;99.90;;;;;;5091281;28;20180;-57
2023/03/30 10:46:21;;;;;;;0.00;0.00;;;15.00;99.90;;;;;;5075128;28;20631;-57
2023/03/30 10:49:05;;;;;;;0.00;0.00;;;15.30;99.90;;;;;;5071083;28;20177;-57
2023/03/30 10:51:58;;;;;;;0.00;0.00;;;15.60;99.90;;;;;;5071101;28;20631;-56
2023/03/30 10:54:48;;;;;;;0.20;0.20;;;15.80;99.90;;;;;;5071060;28;20537;-57
2023/03/30 10:57:17;;;;;;;0.00;0.00;;;15.90;99.90;;;;;;5071365;28;20611;-57
2023/03/30 11:00:11;;;;;;;0.00;0.00;;;15.90;99.90;;;;;;5070707;28;20549;-57
2023/03/30 11:02:47;;;;;;;0.00;0.00;;;16.20;99.90;;;;;;5070634;28;20168;-57
2023/03/30 11:05:28;;;;;;;0.00;0.00;;;16.60;99.90;;;;;;5071104;28;20176;-57
2023/03/30 11:08:03;;;;;;;0.00;0.00;;;16.80;99.90;;;;;;5070846;28;20172;-57
2023/03/30 11:10:37;;;;;;;0.03;0.03;;;17.10;99.90;;;;;;5070940;28;20229;-57
2023/03/30 11:13:06;;;;;;;0.00;0.00;;;17.10;99.90;;;;;;5070585;28;20224;-57
2023/03/30 11:15:52;;;;;;;0.00;0.00;;;17.00;99.90;;;;;;5070731;28;20165;-57
2023/03/30 11:18:39;;;;;;;0.00;0.00;;;16.90;99.90;;;;;;5070711;28;20191;-56
2023/03/30 11:21:10;;;;;;;0.10;0.10;;;16.80;99.90;;;;;;5070467;28;20181;-57
2023/03/30 11:23:51;;;;;;;0.00;0.00;;;16.70;99.90;;;;;;5070495;28;20701;-57
2023/03/30 11:26:40;;;;;;;0.00;0.00;;;16.50;99.90;;;;;;5070537;28;20216;-57
2023/03/30 11:29:35;;;;;;;0.00;0.00;;;16.40;99.90;;;;;;5070630;28;20180;-57
2023/03/30 11:32:23;;;;;;;0.00;0.00;;;16.30;99.90;;;;;;5070589;28;20257;-56
2023/03/30 11:35:11;;;;;;;0.00;0.00;;;16.20;99.90;;;;;;5070553;28;20651;-57
2023/03/30 11:37:55;;;;;;;0.00;0.00;;;16.00;99.90;;;;;;5070320;28;20177;-57
2023/03/30 11:40:33;;;;;;;0.00;0.00;;;16.00;99.90;;;;;;5070506;28;20519;-57
2023/03/30 11:43:00;;;;;;;0.00;0.00;;;16.20;99.90;;;;;;5086635;28;20187;-57
2023/03/30 11:45:28;;;;;;;0.00;0.00;;;16.70;99.90;;;;;;5087978;28;20195;-57
2023/03/30 11:48:21;;;;;;;0.00;0.00;;;17.10;99.90;;;;;;5090491;28;20219;-57
2023/03/30 11:51:06;;;;;;;0.00;0.00;;;17.60;99.90;;;;;;5087649;28;20179;-57
2023/03/30 11:53:52;;;;;;;0.00;0.00;;;17.70;99.90;;;;;;5084789;28;20678;-57
2023/03/30 11:56:41;;;;;;;0.00;0.00;;;18.00;99.90;;;;;;5090722;28;20215;-56
2023/03/30 11:59:44;;;;;;;0.00;0.00;;;18.00;99.90;;;;;;5070551;28;20180;-57
2023/03/30 12:02:21;;;;;;;0.00;0.00;;;18.00;99.90;;;;;;5069612;28;20184;-56
2023/03/30 12:04:51;;;;;;;0.00;0.00;;;17.90;99.90;;;;;;5090480;28;20168;-56
2023/03/30 12:07:46;;;;;;;0.00;0.00;;;17.80;99.90;;;;;;5089949;28;20313;-57
2023/03/30 12:10:39;;;;;;;0.00;0.00;;;17.60;99.90;;;;;;5072290;28;20262;-57
2023/03/30 12:13:09;;;;;;;0.00;0.00;;;17.80;99.90;;;;;;5086177;28;20612;-56
2023/03/30 12:15:58;;;;;;;0.10;0.10;;;17.70;99.90;;;;;;5090189;28;20177;-56
2023/03/30 12:18:54;;;;;;;0.00;0.00;;;17.80;99.90;;;;;;5090120;28;20183;-56
2023/03/30 12:21:22;;;;;;;0.00;0.00;;;17.80;99.50;;;;;;5090520;28;20204;-57
2023/03/30 12:23:55;;;;;;;0.00;0.00;;;17.80;99.50;;;;;;5089791;28;20172;-56
2023/03/30 12:26:26;;;;;;;0.00;0.00;;;17.70;99.90;;;;;;5089804;28;20273;-57
2023/03/30 12:28:52;;;;;;;0.00;0.00;;;17.70;99.90;;;;;;5089387;28;20212;-56
2023/03/30 12:31:18;;;;;;;0.00;0.00;;;17.80;99.90;;;;;;5089808;28;20219;-56
2023/03/30 12:33:51;;;;;;;0.00;0.00;;;17.70;99.80;;;;;;5093580;28;20212;-57
2023/03/30 12:36:40;;;;;;;0.00;0.00;;;17.50;99.30;;;;;;5092009;28;20260;-57
2023/03/30 12:39:24;;;;;;;0.00;0.00;;;17.30;98.70;;;;;;5093668;28;20183;-56
2023/03/30 12:42:03;;;;;;;0.00;0.00;;;17.20;99.70;;;;;;5093351;28;20602;-56
2023/03/30 12:44:35;;;;;;;0.00;0.00;;;17.00;99.40;;;;;;5093521;28;20255;-56
2023/03/30 12:47:12;;;;;;;0.30;0.30;;;16.80;98.70;;;;;;5093086;28;20188;-56
2023/03/30 12:49:48;;;;;;;0.00;0.00;;;16.50;96.70;;;;;;5093087;28;20257;-56
2023/03/30 12:52:20;;;;;;;0.00;0.00;;;16.40;97.80;;;;;;5092894;28;20263;-56
2023/03/30 12:55:00;;;;;;;0.00;0.00;;;16.40;98.60;;;;;;5092722;28;20184;-56
2023/03/30 12:57:50;;;;;;;0.00;0.00;;;16.50;98.90;;;;;;5080601;28;20181;-56
2023/03/30 13:00:54;;;;;;;0.00;0.00;;;16.30;99.50;;;;;;5073410;28;20208;-56
2023/03/30 13:03:39;;;;;;;0.00;0.00;;;16.10;99.40;;;;;;5093047;28;20232;-56
2023/03/30 13:06:19;;;;;;;0.00;0.00;;;15.90;99.60;;;;;;5093235;28;20611;-56
2023/03/30 13:08:45;;;;;;;0.00;0.00;;;15.70;99.90;;;;;;5093292;28;20190;-56
2023/03/30 13:11:19;;;;;;;0.00;0.00;;;15.60;99.90;;;;;;5092584;28;20267;-56
2023/03/30 13:13:59;;;;;;;0.00;0.00;;;15.50;99.90;;;;;;5092872;28;20718;-56